createdAt,value
2023-03-10T00:00:55.064Z,48.75
2023-03-10T00:03:22.978Z,46.92
2023-03-10T00:05:50.863Z,44.22
2023-03-10T00:08:18.833Z,47.92
2023-03-10T00:10:49.158Z,37.42
2023-03-10T00:13:16.960Z,39.80
2023-03-10T00:15:44.883Z,41.83
2023-03-10T00:18:12.730Z,45.20
2023-03-10T00:20:40.659Z,39.20
2023-03-10T00:23:08.502Z,38.53
2023-03-10T00:25:36.394Z,40.08
2023-03-10T00:28:05.596Z,41.88
2023-03-10T00:30:35.240Z,43.90
2023-03-10T00:33:03.122Z,42.85
2023-03-10T00:35:31.361Z,40.13
2023-03-10T00:37:59.201Z,42.25
2023-03-10T00:40:27.049Z,41.75
2023-03-10T00:42:54.880Z,39.47
2023-03-10T00:45:24.107Z,39.90
2023-03-10T00:47:51.927Z,34.03
2023-03-10T00:50:19.984Z,32.47
2023-03-10T00:52:47.848Z,36.85
2023-03-10T00:55:15.695Z,36.53
2023-03-10T00:57:43.523Z,36.97
2023-03-10T01:00:14.925Z,31.27
2023-03-10T01:02:44.448Z,35.95
2023-03-10T01:05:12.693Z,37.35
2023-03-10T01:07:40.555Z,37.55
2023-03-10T01:10:09.126Z,36.40
2023-03-10T01:12:36.992Z,34.15
2023-03-10T01:15:07.342Z,34.67
2023-03-10T01:17:35.331Z,37.83
2023-03-10T01:20:06.545Z,35.42
2023-03-10T01:22:34.459Z,31.88
2023-03-10T01:25:02.328Z,33.65
2023-03-10T01:27:30.181Z,36.50
2023-03-10T01:29:58.334Z,36.15
2023-03-10T01:32:26.275Z,32.75
2023-03-10T01:34:54.205Z,34.15
2023-03-10T01:37:24.599Z,32.58
2023-03-10T01:39:52.491Z,36.33
2023-03-10T01:42:20.726Z,36.42
2023-03-10T01:45:08.193Z,35.03
2023-03-10T01:47:36.447Z,33.30
2023-03-10T01:50:08.232Z,28.50
2023-03-10T01:52:38.048Z,34.25
2023-03-10T01:55:11.134Z,32.05
2023-03-10T01:57:43.426Z,28.88
2023-03-10T02:00:14.703Z,28.23
2023-03-10T02:02:53.949Z,32.10
2023-03-10T02:05:22.111Z,30.38
2023-03-10T02:07:51.906Z,30.33
2023-03-10T02:10:22.216Z,25.67
2023-03-10T02:12:53.492Z,31.00
2023-03-10T02:15:21.693Z,29.02
2023-03-10T02:17:51.410Z,27.05
2023-03-10T02:20:30.446Z,31.02
2023-03-10T02:23:00.709Z,29.52
2023-03-10T02:25:41.469Z,28.08
2023-03-10T02:28:11.179Z,27.92
2023-03-10T02:30:41.510Z,31.05
2023-03-10T02:33:14.878Z,29.00
2023-03-10T02:35:42.850Z,27.60
2023-03-10T02:38:14.366Z,30.88
2023-03-10T02:40:46.409Z,30.38
2023-03-10T02:43:23.446Z,30.45
2023-03-10T02:45:59.976Z,30.60
2023-03-10T02:48:32.877Z,28.13
2023-03-10T02:51:03.965Z,28.77
2023-03-10T02:53:31.885Z,30.13
2023-03-10T02:56:00.890Z,29.13
2023-03-10T02:58:33.619Z,30.75
2023-03-10T03:01:05.009Z,31.42
2023-03-10T03:03:36.060Z,27.48
2023-03-10T03:06:05.666Z,33.63
2023-03-10T03:08:34.548Z,27.45
2023-03-10T03:11:05.153Z,28.08
2023-03-10T03:13:34.476Z,27.70
2023-03-10T03:16:02.350Z,31.98
2023-03-10T03:18:30.391Z,27.40
2023-03-10T03:20:58.305Z,24.63
2023-03-10T03:23:27.248Z,27.25
2023-03-10T03:25:55.264Z,27.60
2023-03-10T03:28:23.290Z,22.60
2023-03-10T03:30:54.569Z,24.35
2023-03-10T03:33:22.632Z,23.48
2023-03-10T03:35:50.946Z,25.10
2023-03-10T03:38:20.003Z,23.10
2023-03-10T03:40:48.444Z,23.08
2023-03-10T03:43:18.905Z,19.90
2023-03-10T03:45:48.357Z,19.17
2023-03-10T03:48:20.093Z,20.67
2023-03-10T03:50:50.812Z,23.20
2023-03-10T03:53:28.226Z,18.45
2023-03-10T03:55:56.478Z,23.92
2023-03-10T03:58:27.491Z,18.73
2023-03-10T04:00:55.414Z,20.85
2023-03-10T04:03:24.719Z,19.15
2023-03-10T04:05:52.653Z,19.80
2023-03-10T04:08:21.433Z,21.95
2023-03-10T04:10:52.191Z,16.73
2023-03-10T04:13:21.346Z,19.33
2023-03-10T04:15:56.121Z,16.85
2023-03-10T04:18:26.045Z,18.00
2023-03-10T04:20:53.972Z,20.90
2023-03-10T04:23:21.973Z,17.88
2023-03-10T04:25:50.220Z,17.80
2023-03-10T04:28:19.430Z,17.92
2023-03-10T04:30:49.141Z,18.10
2023-03-10T04:33:19.968Z,15.10
2023-03-10T04:35:52.714Z,18.08
2023-03-10T04:38:23.658Z,16.77
2023-03-10T04:40:56.077Z,20.02
2023-03-10T04:43:27.415Z,16.45
2023-03-10T04:45:56.321Z,20.92
2023-03-10T04:48:24.821Z,16.73
2023-03-10T04:50:57.763Z,20.77
2023-03-10T04:53:27.808Z,18.20
2023-03-10T04:55:56.324Z,17.83
2023-03-10T04:58:24.656Z,16.80
2023-03-10T05:01:02.887Z,15.88
2023-03-10T05:03:33.817Z,20.20
2023-03-10T05:06:03.096Z,20.13
2023-03-10T05:08:31.218Z,15.35
2023-03-10T05:10:59.175Z,15.57
2023-03-10T05:13:27.483Z,18.08
2023-03-10T05:15:56.390Z,16.67
2023-03-10T05:18:24.317Z,15.35
2023-03-10T05:20:54.926Z,14.32
2023-03-10T05:23:24.879Z,19.70
2023-03-10T05:25:52.823Z,17.58
2023-03-10T05:28:23.800Z,16.67
2023-03-10T05:30:52.472Z,14.80
2023-03-10T05:33:20.910Z,15.65
2023-03-10T05:35:49.819Z,16.90
2023-03-10T05:38:17.969Z,15.00
2023-03-10T05:40:47.427Z,17.30
2023-03-10T05:43:17.604Z,15.38
2023-03-10T05:45:46.016Z,20.05
2023-03-10T05:48:14.060Z,16.33
2023-03-10T05:50:41.920Z,15.73
2023-03-10T05:53:10.108Z,17.88
2023-03-10T05:55:38.257Z,17.65
2023-03-10T05:58:07.728Z,13.35
2023-03-10T06:00:35.636Z,17.42
2023-03-10T06:03:04.567Z,15.55
2023-03-10T06:05:32.571Z,17.27
2023-03-10T06:08:00.805Z,19.65
2023-03-10T06:10:28.690Z,17.10
2023-03-10T06:12:56.496Z,17.38
2023-03-10T06:15:25.692Z,15.25
2023-03-10T06:17:53.571Z,15.27
2023-03-10T06:20:21.432Z,16.42
2023-03-10T06:22:49.277Z,14.57
2023-03-10T06:25:17.308Z,14.40
2023-03-10T06:27:45.145Z,17.35
2023-03-10T06:30:13.656Z,16.15
2023-03-10T06:32:43.118Z,18.05
2023-03-10T06:35:14.611Z,16.20
2023-03-10T06:37:43.310Z,18.35
2023-03-10T06:40:15.204Z,13.73
2023-03-10T06:42:44.431Z,15.60
2023-03-10T06:45:16.433Z,16.25
2023-03-10T06:47:45.877Z,16.92
2023-03-10T06:50:17.236Z,18.60
2023-03-10T06:52:45.752Z,19.25
2023-03-10T06:55:15.919Z,20.63
2023-03-10T06:57:43.723Z,15.95
2023-03-10T07:00:15.801Z,20.17
2023-03-10T07:02:45.147Z,16.35
2023-03-10T07:05:14.820Z,16.38
2023-03-10T07:07:42.714Z,20.95
2023-03-10T07:10:12.502Z,19.23
2023-03-10T07:12:40.322Z,16.90
2023-03-10T07:15:09.437Z,17.75
2023-03-10T07:17:37.538Z,17.75
2023-03-10T07:20:08.483Z,19.50
2023-03-10T07:22:36.337Z,17.10
2023-03-10T07:25:04.977Z,19.02
2023-03-10T07:27:33.117Z,20.30
2023-03-10T07:30:01.109Z,21.05
2023-03-10T07:32:28.999Z,17.20
2023-03-10T07:34:56.928Z,20.75
2023-03-10T07:37:26.176Z,22.42
2023-03-10T07:39:55.145Z,22.27
2023-03-10T07:42:23.467Z,18.67
2023-03-10T07:44:51.743Z,21.83
2023-03-10T07:47:19.784Z,23.20
2023-03-10T07:49:48.009Z,21.40
2023-03-10T07:52:16.476Z,21.77
2023-03-10T07:54:45.944Z,20.90
2023-03-10T07:57:14.193Z,20.67
2023-03-10T07:59:42.504Z,20.17
2023-03-10T08:02:13.274Z,18.75
2023-03-10T08:04:41.357Z,19.45
2023-03-10T08:07:10.221Z,21.95
2023-03-10T08:09:38.939Z,23.48
2023-03-10T08:12:09.324Z,20.17
2023-03-10T08:14:37.725Z,20.48
2023-03-10T08:17:05.786Z,18.17
2023-03-10T08:19:33.691Z,19.00
2023-03-10T08:22:02.127Z,19.23
2023-03-10T08:24:29.988Z,21.48
2023-03-10T08:26:57.942Z,23.40
2023-03-10T08:29:27.162Z,21.65
2023-03-10T08:31:55.131Z,21.25
2023-03-10T08:34:23.294Z,20.05
2023-03-10T08:36:51.138Z,19.38
2023-03-10T08:39:18.990Z,22.33
2023-03-10T08:41:49.249Z,20.88
2023-03-10T08:44:18.722Z,18.60
2023-03-10T08:46:49.633Z,22.45
2023-03-10T08:49:19.735Z,26.23
2023-03-10T08:51:47.784Z,22.42
2023-03-10T08:54:17.488Z,23.90
2023-03-10T08:56:45.388Z,22.73
2023-03-10T08:59:13.304Z,25.40
2023-03-10T09:01:41.304Z,24.42
2023-03-10T09:04:11.403Z,25.35
2023-03-10T09:06:40.126Z,24.77
2023-03-10T09:09:10.077Z,25.45
2023-03-10T09:11:40.390Z,27.42
2023-03-10T09:14:09.856Z,23.40
2023-03-10T09:16:39.460Z,25.05
2023-03-10T09:19:07.622Z,24.33
2023-03-10T09:21:36.942Z,22.98
2023-03-10T09:24:05.365Z,20.48
2023-03-10T09:26:34.394Z,21.52
2023-03-10T09:29:02.780Z,21.38
2023-03-10T09:31:32.618Z,24.63
2023-03-10T09:34:00.929Z,20.00
2023-03-10T09:36:29.662Z,21.00
2023-03-10T09:39:00.412Z,21.23
2023-03-10T09:41:46.161Z,22.92
2023-03-10T09:44:25.224Z,24.02
2023-03-10T09:47:06.809Z,22.70
2023-03-10T09:49:38.642Z,28.67
2023-03-10T09:52:20.895Z,27.05
2023-03-10T09:54:57.685Z,23.98
2023-03-10T09:57:26.192Z,25.40
2023-03-10T09:59:59.013Z,25.35
2023-03-10T10:02:33.296Z,25.23
2023-03-10T10:05:04.743Z,23.42
2023-03-10T10:07:43.055Z,20.98
2023-03-10T10:10:18.341Z,24.73
2023-03-10T10:12:47.337Z,24.63
2023-03-10T10:15:17.926Z,25.15
2023-03-10T10:18:17.551Z,23.65
2023-03-10T10:20:50.979Z,22.30
2023-03-10T10:23:26.053Z,22.23
2023-03-10T10:25:56.846Z,20.75
2023-03-10T10:28:30.214Z,26.48
2023-03-10T10:33:56.944Z,31.23
2023-03-10T10:36:26.041Z,23.20
2023-03-10T10:38:56.576Z,23.83
2023-03-10T10:41:29.659Z,25.95
2023-03-10T10:44:00.185Z,23.50
2023-03-10T10:46:30.845Z,26.67
2023-03-10T10:49:07.706Z,19.20
2023-03-10T10:51:38.006Z,23.17
2023-03-10T10:54:22.765Z,20.92
2023-03-10T10:56:56.392Z,23.63
2023-03-10T10:59:28.520Z,22.40
2023-03-10T11:01:58.570Z,21.70
2023-03-10T11:04:28.994Z,22.88
2023-03-10T11:07:12.024Z,21.65
2023-03-10T11:09:39.901Z,23.55
2023-03-10T11:12:21.303Z,22.08
2023-03-10T11:14:58.870Z,22.25
2023-03-10T11:17:34.024Z,19.15
2023-03-10T11:20:09.900Z,22.52
2023-03-10T11:22:43.165Z,22.75
2023-03-10T11:25:27.802Z,18.25
2023-03-10T11:28:24.219Z,19.65
2023-03-10T11:31:01.332Z,23.80
2023-03-10T11:33:36.236Z,21.50
2023-03-10T11:36:18.031Z,16.70
2023-03-10T11:38:49.942Z,22.20
2023-03-10T11:41:22.616Z,21.48
2023-03-10T11:43:59.323Z,19.13
2023-03-10T11:46:33.105Z,14.75
2023-03-10T11:49:09.357Z,17.52
2023-03-10T11:51:40.699Z,14.70
2023-03-10T11:54:15.694Z,17.42
2023-03-10T11:56:44.450Z,15.40
2023-03-10T11:59:19.619Z,13.98
2023-03-10T12:01:52.328Z,14.38
2023-03-10T12:04:23.661Z,14.40
2023-03-10T12:06:56.069Z,14.00
2023-03-10T12:09:39.172Z,15.60
2023-03-10T12:12:08.806Z,11.35
2023-03-10T12:14:38.049Z,14.30
2023-03-10T12:17:06.307Z,12.65
2023-03-10T12:19:47.285Z,12.90
2023-03-10T12:22:25.794Z,9.75
2023-03-10T12:24:54.200Z,13.27
2023-03-10T12:27:22.080Z,9.30
2023-03-10T12:29:51.291Z,8.75
2023-03-10T12:32:50.641Z,9.45
2023-03-10T12:35:44.036Z,8.93
2023-03-10T12:38:43.734Z,9.05
2023-03-10T12:41:12.807Z,9.75
2023-03-10T12:44:08.407Z,13.73
2023-03-10T12:46:48.507Z,12.60
2023-03-10T12:49:29.527Z,13.68
2023-03-10T12:52:13.887Z,14.35
2023-03-10T12:54:52.851Z,12.75
2023-03-10T12:57:29.813Z,12.98
2023-03-10T13:00:02.602Z,11.95
2023-03-10T13:02:37.181Z,7.38
2023-03-10T13:05:19.890Z,14.32
2023-03-10T13:07:52.802Z,8.73
2023-03-10T13:10:24.158Z,11.60
2023-03-10T13:12:55.799Z,9.02
2023-03-10T13:15:25.769Z,11.13
2023-03-10T13:17:56.300Z,14.00
2023-03-10T13:20:24.676Z,11.52
2023-03-10T13:22:56.918Z,14.07
2023-03-10T13:25:25.909Z,8.65
2023-03-10T13:27:57.271Z,7.32
2023-03-10T13:30:27.906Z,6.18
2023-03-10T13:32:59.636Z,6.53
2023-03-10T13:35:31.870Z,8.05
2023-03-10T13:38:12.645Z,7.07
2023-03-10T13:40:43.639Z,8.98
2023-03-10T13:43:27.894Z,11.38
2023-03-10T13:45:57.228Z,5.88
2023-03-10T13:48:28.767Z,4.88
2023-03-10T13:51:19.455Z,6.88
2023-03-10T13:53:48.451Z,9.50
2023-03-10T13:56:19.219Z,8.25
2023-03-10T13:58:48.287Z,9.80
2023-03-10T14:01:19.902Z,7.50
2023-03-10T14:03:55.022Z,8.35
2023-03-10T14:06:25.220Z,8.35
2023-03-10T14:08:53.823Z,8.93
2023-03-10T14:11:32.849Z,8.40
2023-03-10T14:14:01.362Z,10.80
2023-03-10T14:16:48.690Z,10.52
2023-03-10T14:19:47.406Z,8.10
2023-03-10T14:22:28.984Z,11.40
2023-03-10T14:24:57.296Z,8.90
2023-03-10T14:27:25.930Z,12.15
2023-03-10T14:29:56.009Z,9.68
2023-03-10T14:32:24.491Z,9.93
2023-03-10T14:34:54.034Z,9.23
2023-03-10T14:37:21.949Z,11.80
2023-03-10T14:39:49.784Z,12.07
2023-03-10T14:42:23.619Z,11.55
2023-03-10T14:44:52.173Z,9.90
2023-03-10T14:47:20.277Z,11.25
2023-03-10T14:49:48.406Z,11.57
2023-03-10T14:52:18.879Z,10.60
2023-03-10T14:54:47.356Z,11.52
2023-03-10T14:57:20.594Z,9.77
2023-03-10T14:59:48.540Z,13.15
2023-03-10T15:02:21.511Z,12.38
2023-03-10T15:04:49.795Z,11.63
2023-03-10T15:07:19.064Z,9.73
2023-03-10T15:09:47.139Z,9.68
2023-03-10T15:12:17.962Z,11.30
2023-03-10T15:14:52.294Z,12.63
2023-03-10T15:17:20.261Z,13.52
2023-03-10T15:19:48.112Z,13.98
2023-03-10T15:22:16.038Z,16.65
2023-03-10T15:24:45.463Z,12.13
2023-03-10T15:27:13.711Z,14.15
2023-03-10T15:29:41.599Z,13.88
2023-03-10T15:32:09.455Z,17.25
2023-03-10T15:34:37.270Z,13.57
2023-03-10T15:37:07.365Z,14.05
2023-03-10T15:39:37.214Z,14.95
2023-03-10T15:42:06.916Z,14.65
2023-03-10T15:44:34.825Z,14.75
2023-03-10T15:47:02.713Z,14.60
2023-03-10T15:49:30.862Z,15.15
2023-03-10T15:51:58.754Z,17.92
2023-03-10T15:54:26.686Z,16.23
2023-03-10T15:56:54.557Z,16.40
2023-03-10T15:59:23.864Z,18.75
2023-03-10T16:01:52.542Z,17.50
2023-03-10T16:04:21.176Z,16.92
2023-03-10T16:06:49.021Z,18.75
2023-03-10T16:09:16.927Z,17.33
2023-03-10T16:11:44.784Z,17.42
2023-03-10T16:14:12.568Z,17.67
2023-03-10T16:16:41.893Z,20.92
2023-03-10T16:19:09.701Z,16.67
2023-03-10T16:21:37.519Z,22.08
2023-03-10T16:24:17.426Z,19.60
2023-03-10T16:26:45.394Z,17.40
2023-03-10T16:29:13.689Z,19.73
2023-03-10T16:31:43.098Z,19.80
2023-03-10T16:34:11.309Z,21.15
2023-03-10T16:36:39.137Z,17.88
2023-03-10T16:39:09.558Z,19.00
2023-03-10T16:41:37.506Z,17.92
2023-03-10T16:44:06.181Z,17.73
2023-03-10T16:46:34.952Z,17.13
2023-03-10T16:49:04.492Z,19.08
2023-03-10T16:51:35.337Z,21.55
2023-03-10T16:54:05.358Z,20.40
2023-03-10T16:56:37.944Z,18.42
2023-03-10T16:59:07.098Z,19.92
2023-03-10T17:01:35.282Z,18.90
2023-03-10T17:04:04.692Z,16.13
2023-03-10T17:06:34.143Z,18.02
2023-03-10T17:09:02.714Z,17.55
2023-03-10T17:11:32.907Z,14.93
2023-03-10T17:14:02.587Z,16.98
2023-03-10T17:16:33.230Z,15.15
2023-03-10T17:19:02.790Z,16.48
2023-03-10T17:21:35.932Z,14.90
2023-03-10T17:26:32.832Z,14.85
2023-03-10T17:29:01.089Z,17.33
2023-03-10T17:31:30.558Z,15.70
2023-03-10T17:34:00.349Z,14.45
2023-03-10T17:36:29.240Z,16.75
2023-03-10T17:39:00.516Z,16.95
2023-03-10T17:41:29.501Z,19.45
2023-03-10T17:43:57.958Z,18.40
2023-03-10T17:46:28.309Z,21.35
2023-03-10T17:48:56.799Z,25.30
2023-03-10T17:51:27.085Z,20.75
2023-03-10T17:53:57.685Z,17.75
2023-03-10T17:56:27.192Z,17.63
2023-03-10T17:58:55.781Z,21.25
2023-03-10T18:01:26.518Z,21.20
2023-03-10T18:03:56.048Z,17.17
2023-03-10T18:06:25.933Z,15.20
2023-03-10T18:08:56.398Z,18.08
2023-03-10T18:11:26.414Z,15.60
2023-03-10T18:13:54.554Z,15.65
2023-03-10T18:16:25.037Z,13.95
2023-03-10T18:18:53.051Z,13.07
2023-03-10T18:21:21.421Z,12.70
2023-03-10T18:23:51.248Z,14.23
2023-03-10T18:26:21.363Z,14.07
2023-03-10T18:28:50.592Z,13.40
2023-03-10T18:31:20.728Z,13.52
2023-03-10T18:33:49.368Z,12.23
2023-03-10T18:36:18.704Z,13.45
2023-03-10T18:38:47.958Z,12.10
2023-03-10T18:41:19.001Z,13.88
2023-03-10T18:43:46.961Z,15.18
2023-03-10T18:46:16.243Z,13.55
2023-03-10T18:48:44.274Z,13.45
2023-03-10T18:51:13.589Z,11.77
2023-03-10T18:53:41.612Z,13.38
2023-03-10T18:56:10.752Z,11.48
2023-03-10T18:58:38.636Z,14.63
2023-03-10T19:01:11.312Z,14.75
2023-03-10T19:03:40.698Z,14.55
2023-03-10T19:06:09.506Z,13.20
2023-03-10T19:08:38.350Z,16.90
2023-03-10T19:11:07.140Z,19.08
2023-03-10T19:13:35.774Z,17.63
2023-03-10T19:16:07.420Z,24.20
2023-03-10T19:18:35.861Z,18.45
2023-03-10T19:21:06.119Z,16.42
2023-03-10T19:23:35.083Z,21.77
2023-03-10T19:26:03.177Z,18.88
2023-03-10T19:28:31.375Z,19.65
2023-03-10T19:30:59.361Z,17.73
2023-03-10T19:33:27.405Z,21.48
2023-03-10T19:36:01.340Z,17.30
2023-03-10T19:38:30.901Z,20.83
2023-03-10T19:40:58.810Z,18.33
2023-03-10T19:43:26.655Z,20.20
2023-03-10T19:46:00.643Z,23.00
2023-03-10T19:48:28.683Z,20.35
2023-03-10T19:50:57.946Z,26.38
2023-03-10T19:53:26.892Z,27.05
2023-03-10T19:55:57.756Z,31.92
2023-03-10T19:58:26.879Z,34.13
2023-03-10T20:00:57.860Z,29.80
2023-03-10T20:03:29.620Z,23.42
2023-03-10T20:05:58.077Z,24.35
2023-03-10T20:08:26.014Z,22.75
2023-03-10T20:11:02.086Z,22.90
2023-03-10T20:15:58.405Z,28.23
2023-03-10T20:18:26.999Z,25.75
2023-03-10T20:20:54.872Z,22.02
2023-03-10T20:23:23.117Z,23.38
2023-03-10T20:25:50.938Z,24.70
2023-03-10T20:28:20.236Z,29.23
2023-03-10T20:30:49.143Z,31.83
2023-03-10T20:33:20.294Z,39.40
2023-03-10T20:35:51.168Z,35.05
2023-03-10T20:38:19.158Z,33.45
2023-03-10T20:40:47.032Z,36.40
2023-03-10T20:43:14.988Z,30.08
2023-03-10T20:45:44.676Z,38.53
2023-03-10T20:48:12.639Z,30.27
2023-03-10T20:50:40.584Z,46.63
2023-03-10T20:53:08.496Z,38.70
2023-03-10T20:55:36.371Z,39.60
2023-03-10T20:58:04.362Z,41.05
2023-03-10T21:00:32.396Z,34.10
2023-03-10T21:03:01.749Z,30.85
2023-03-10T21:05:30.175Z,32.90
2023-03-10T21:07:59.076Z,33.42
2023-03-10T21:10:26.981Z,48.90
2023-03-10T21:12:55.042Z,63.83
2023-03-10T21:15:24.300Z,56.83
2023-03-10T21:17:52.840Z,54.42
2023-03-10T21:20:24.440Z,30.48
2023-03-10T21:22:52.646Z,36.30
2023-03-10T21:25:23.088Z,33.03
2023-03-10T21:27:53.422Z,45.20
2023-03-10T21:30:23.542Z,41.33
2023-03-10T21:32:51.700Z,31.20
2023-03-10T21:35:19.773Z,23.13
2023-03-10T21:37:49.453Z,25.17
2023-03-10T21:40:19.777Z,20.83
2023-03-10T21:42:48.064Z,42.15
2023-03-10T21:45:20.568Z,27.75
2023-03-10T21:47:48.568Z,32.55
2023-03-10T21:50:17.811Z,27.70
2023-03-10T21:52:46.215Z,38.53
2023-03-10T21:55:19.899Z,42.10
2023-03-10T21:57:50.935Z,25.33
2023-03-10T22:00:23.033Z,29.27
2023-03-10T22:02:51.200Z,36.58
2023-03-10T22:05:20.283Z,33.88
2023-03-10T22:07:48.434Z,27.70
2023-03-10T22:10:19.526Z,30.65
2023-03-10T22:12:47.994Z,27.13
2023-03-10T22:15:18.664Z,25.80
2023-03-10T22:17:47.212Z,24.65
2023-03-10T22:20:18.294Z,24.75
2023-03-10T22:22:46.381Z,29.95
2023-03-10T22:25:15.698Z,25.23
2023-03-10T22:27:46.043Z,28.55
2023-03-10T22:30:15.043Z,26.20
2023-03-10T22:32:43.506Z,20.67
2023-03-10T22:35:11.801Z,20.55
2023-03-10T22:37:40.504Z,18.17
2023-03-10T22:40:10.931Z,23.98
2023-03-10T22:42:39.257Z,23.00
2023-03-10T22:45:15.534Z,21.50
2023-03-10T22:47:43.437Z,20.10
2023-03-10T22:50:13.033Z,23.52
2023-03-10T22:52:40.870Z,21.80
2023-03-10T22:55:09.483Z,21.83
2023-03-10T22:57:37.352Z,25.65
2023-03-10T23:00:08.675Z,24.40
2023-03-10T23:02:38.069Z,23.25
2023-03-10T23:05:07.088Z,26.08
2023-03-10T23:07:35.434Z,26.98
2023-03-10T23:10:03.997Z,26.02
2023-03-10T23:12:31.896Z,25.70
2023-03-10T23:14:59.831Z,27.40
2023-03-10T23:17:27.693Z,23.77
2023-03-10T23:19:57.519Z,24.58
2023-03-10T23:22:26.048Z,29.70
2023-03-10T23:24:54.065Z,23.13
2023-03-10T23:27:21.940Z,25.90
2023-03-10T23:29:49.749Z,24.73
2023-03-10T23:32:17.712Z,27.55
2023-03-10T23:34:45.626Z,25.95
2023-03-10T23:37:14.871Z,25.17
2023-03-10T23:39:42.904Z,22.23
2023-03-10T23:42:10.767Z,20.58
2023-03-10T23:44:38.625Z,26.00
2023-03-10T23:47:06.860Z,19.35
2023-03-10T23:49:34.689Z,20.10
2023-03-10T23:52:02.732Z,21.92
2023-03-10T23:54:32.181Z,20.23
2023-03-10T23:57:00.223Z,19.10
2023-03-10T23:59:28.203Z,18.95
